Weather

BRISBANE METAR

Available data for YBBN from the past 2 hours
BRISBANE INTL AR
Metar
YBBN 150830Z 05010KT 9999 FEW030 26/19 Q1013 NOSIG

08:30 UTC

Wind: 50° 10kt

Visibility: 9999 m

Sky: FEW 3000 ft

Temp: 26 deg C / 78.8 deg F

Dewpoint: 19 deg C / 66.2 deg F

Pressure: 1013 hPa

TAF
TAF YBBN 150507Z 1506/1612 05013KT 9999 FEW035 FM151000 04005KT 9999 SCT025 FM160000 05012KT 9999 FEW035 FM161000 03009KT 9999 SCT025
DOQ Compas Heading


Whole of Australia